createdAt,value
2022-11-17T00:01:34.722Z,99863.53
2022-11-17T00:06:57.997Z,99839.88
2022-11-17T00:12:22.717Z,99857.72
2022-11-17T00:17:47.107Z,99864.59
2022-11-17T00:23:08.891Z,99849.44
2022-11-17T00:28:30.671Z,99868.06
2022-11-17T00:33:52.439Z,99877.41
2022-11-17T00:39:16.125Z,99862.03
2022-11-17T00:44:37.922Z,99856.31
2022-11-17T00:49:59.699Z,99865.69
2022-11-17T00:55:21.574Z,99882.44
2022-11-17T01:00:43.408Z,99889.38
2022-11-17T01:06:10.855Z,99880.09
2022-11-17T01:11:33.288Z,99866.56
2022-11-17T01:16:55.503Z,99874.22
2022-11-17T01:22:17.382Z,99879.19
2022-11-17T01:27:39.278Z,99892.81
2022-11-17T01:33:01.087Z,99892.81
2022-11-17T01:38:22.916Z,99885.13
2022-11-17T01:43:50.788Z,99892.00
2022-11-17T01:49:26.573Z,99883.53
2022-11-17T01:54:48.717Z,99896.28
2022-11-17T02:00:12.078Z,99909.84
2022-11-17T02:05:55.019Z,99896.28
2022-11-17T02:11:19.943Z,99890.38
2022-11-17T02:16:41.713Z,99906.44
2022-11-17T02:22:37.403Z,99887.00
2022-11-17T02:28:08.337Z,99879.38
2022-11-17T02:33:42.102Z,99876.75
2022-11-17T02:39:14.901Z,99846.28
2022-11-17T02:44:40.244Z,99864.97
2022-11-17T02:50:10.615Z,99858.16
2022-11-17T02:55:35.531Z,99870.91
2022-11-17T03:01:06.133Z,99870.06
2022-11-17T03:06:51.072Z,99872.56
2022-11-17T03:12:21.707Z,99868.34
2022-11-17T03:18:22.206Z,99875.97
2022-11-17T03:23:51.491Z,99859.91
2022-11-17T03:29:16.823Z,99879.34
2022-11-17T03:34:44.479Z,99881.03
2022-11-17T03:40:10.651Z,99864.13
2022-11-17T03:45:38.327Z,99872.59
2022-11-17T03:51:18.139Z,99879.38
2022-11-17T03:56:58.830Z,99879.38
2022-11-17T04:02:21.749Z,99875.97
2022-11-17T04:07:46.594Z,99859.03
2022-11-17T04:13:08.510Z,99868.38
2022-11-17T04:18:30.274Z,99878.53
2022-11-17T04:23:52.028Z,99861.59
2022-11-17T04:29:13.799Z,99860.72
2022-11-17T04:34:35.589Z,99882.75
2022-11-17T04:39:57.370Z,99876.00
2022-11-17T04:45:19.107Z,99878.56
2022-11-17T04:50:40.862Z,99860.75
2022-11-17T04:56:03.834Z,99896.34
2022-11-17T05:01:27.174Z,99883.59
2022-11-17T05:06:48.957Z,99881.09
2022-11-17T05:12:10.865Z,99881.94
2022-11-17T05:17:32.645Z,99857.34
2022-11-17T05:22:54.398Z,99882.78
2022-11-17T05:28:16.225Z,99877.69
2022-11-17T05:33:38.955Z,99883.63
2022-11-17T05:39:01.375Z,99861.59
2022-11-17T05:44:23.213Z,99881.06
2022-11-17T05:49:45.138Z,99876.00
2022-11-17T05:55:07.445Z,99885.31
2022-11-17T06:00:30.828Z,99878.56
2022-11-17T06:05:53.442Z,99894.66
2022-11-17T06:11:15.228Z,99898.03
2022-11-17T06:16:43.292Z,99883.59
2022-11-17T06:22:12.058Z,99884.47
2022-11-17T06:27:36.848Z,99886.16
2022-11-17T06:32:59.482Z,99904.84
2022-11-17T06:38:21.239Z,99898.03
2022-11-17T06:43:42.995Z,99917.50
2022-11-17T06:49:08.420Z,99910.72
2022-11-17T06:54:30.184Z,99918.38
2022-11-17T06:59:51.974Z,99911.63
2022-11-17T07:05:13.765Z,99909.88
2022-11-17T07:10:36.484Z,99908.22
2022-11-17T07:16:06.596Z,99895.47
2022-11-17T07:21:28.365Z,99919.25
2022-11-17T07:26:50.129Z,99903.13
2022-11-17T07:32:12.815Z,99895.50
2022-11-17T07:37:34.585Z,99913.31
2022-11-17T07:42:56.371Z,99931.06
2022-11-17T07:48:18.195Z,99944.59
2022-11-17T07:53:39.998Z,99907.34
2022-11-17T07:59:01.843Z,99925.16
2022-11-17T08:04:23.641Z,99937.00
2022-11-17T08:09:45.390Z,99931.88
2022-11-17T08:15:08.055Z,99930.22
2022-11-17T08:20:30.116Z,99934.44
2022-11-17T08:25:51.888Z,99930.22
2022-11-17T08:31:14.187Z,99939.53
2022-11-17T08:36:36.008Z,99943.72
2022-11-17T08:41:57.774Z,99908.94
2022-11-17T08:47:19.530Z,99929.34
2022-11-17T08:52:41.294Z,99909.00
2022-11-17T08:58:04.051Z,99931.91
2022-11-17T09:03:25.827Z,99920.03
2022-11-17T09:08:47.855Z,99920.09
2022-11-17T09:14:09.734Z,99911.56
2022-11-17T09:19:31.479Z,99913.31
2022-11-17T09:24:53.481Z,99925.13
2022-11-17T09:30:15.466Z,99931.09
2022-11-17T09:35:37.223Z,99910.72
2022-11-17T09:40:59.618Z,99907.31
2022-11-17T09:46:29.788Z,99900.56
2022-11-17T09:51:52.730Z,99892.94
2022-11-17T09:57:42.340Z,99900.56
2022-11-17T10:03:14.741Z,99886.16
2022-11-17T10:08:46.702Z,99899.72
2022-11-17T10:14:08.480Z,99894.63
2022-11-17T10:19:32.411Z,99881.06
2022-11-17T10:24:54.335Z,99875.13
2022-11-17T10:30:19.091Z,99877.69
2022-11-17T10:35:40.893Z,99876.00
2022-11-17T10:41:03.369Z,99872.63
2022-11-17T10:46:25.303Z,99875.16
2022-11-17T10:52:05.308Z,99853.16
2022-11-17T10:57:27.219Z,99876.03
2022-11-17T11:02:49.036Z,99864.13
2022-11-17T11:08:22.051Z,99866.66
2022-11-17T11:13:57.377Z,99867.47
2022-11-17T11:19:20.415Z,99863.28
2022-11-17T11:25:03.092Z,99857.34
2022-11-17T11:30:25.203Z,99855.69
2022-11-17T11:36:08.309Z,99840.41
2022-11-17T11:41:55.020Z,99832.78
2022-11-17T11:47:16.751Z,99846.28
2022-11-17T11:52:43.504Z,99851.41
2022-11-17T11:58:21.835Z,99851.44
2022-11-17T12:03:56.287Z,99848.88
2022-11-17T12:09:44.796Z,99853.13
2022-11-17T12:15:31.589Z,99848.91
2022-11-17T12:21:00.713Z,99838.75
2022-11-17T12:26:28.262Z,99837.88
2022-11-17T12:31:54.941Z,99834.50
2022-11-17T12:37:19.569Z,99823.44
2022-11-17T12:43:24.455Z,99835.28
2022-11-17T12:48:58.409Z,99820.03
2022-11-17T12:54:54.497Z,99819.25
2022-11-17T13:00:27.290Z,99808.19
2022-11-17T13:06:33.706Z,99799.69
2022-11-17T13:12:03.717Z,99798.91
2022-11-17T13:17:40.925Z,99807.41
2022-11-17T13:23:05.762Z,99811.63
2022-11-17T13:28:30.614Z,99798.94
2022-11-17T13:34:10.767Z,99812.47
2022-11-17T13:39:32.963Z,99796.38
2022-11-17T13:44:57.257Z,99788.75
2022-11-17T13:50:28.253Z,99777.75
2022-11-17T13:55:50.837Z,99790.47
2022-11-17T14:01:12.685Z,99788.75
2022-11-17T14:07:01.668Z,99797.19
2022-11-17T14:12:23.520Z,99798.09
2022-11-17T14:17:54.185Z,99782.84
2022-11-17T14:23:17.878Z,99795.50
2022-11-17T14:28:39.697Z,99789.59
2022-11-17T14:34:01.552Z,99795.50
2022-11-17T14:39:23.362Z,99792.03
2022-11-17T14:44:45.123Z,99792.03
2022-11-17T14:50:11.447Z,99795.41
2022-11-17T14:55:33.354Z,99790.31
2022-11-17T15:00:55.112Z,99792.72
2022-11-17T15:06:20.128Z,99795.25
2022-11-17T15:11:42.392Z,99793.59
2022-11-17T15:17:05.093Z,99769.03
2022-11-17T15:22:27.767Z,99795.28
2022-11-17T15:27:49.580Z,99773.25
2022-11-17T15:33:11.434Z,99770.63
2022-11-17T15:38:33.401Z,99787.63
2022-11-17T15:43:55.242Z,99778.34
2022-11-17T15:49:17.336Z,99775.06
2022-11-17T15:54:39.435Z,99778.41
2022-11-17T16:00:01.186Z,99767.41
2022-11-17T16:05:22.962Z,99775.88
2022-11-17T16:10:44.739Z,99778.41
2022-11-17T16:16:07.566Z,99780.16
2022-11-17T16:21:29.383Z,99791.94
2022-11-17T16:26:51.177Z,99788.53
2022-11-17T16:32:13.024Z,99781.84
2022-11-17T16:37:34.829Z,99765.72
2022-11-17T16:42:58.632Z,99766.63
2022-11-17T16:48:20.450Z,99772.59
2022-11-17T16:53:43.286Z,99761.56
2022-11-17T16:59:05.143Z,99770.88
2022-11-17T17:04:29.702Z,99750.59
2022-11-17T17:09:51.487Z,99755.69
2022-11-17T17:15:13.276Z,99767.56
2022-11-17T17:20:35.044Z,99764.97
2022-11-17T17:26:07.225Z,99760.72
2022-11-17T17:31:31.535Z,99734.41
2022-11-17T17:36:53.288Z,99729.34
2022-11-17T17:42:15.206Z,99735.34
2022-11-17T17:47:36.967Z,99735.34
2022-11-17T17:52:58.727Z,99724.28
2022-11-17T17:58:20.507Z,99737.88
2022-11-17T18:03:44.015Z,99732.81
2022-11-17T18:09:07.519Z,99727.69
2022-11-17T18:14:29.312Z,99724.28
2022-11-17T18:19:51.094Z,99714.13
2022-11-17T18:25:17.683Z,99719.19
2022-11-17T18:30:39.759Z,99717.50
2022-11-17T18:36:09.051Z,99714.97
2022-11-17T18:41:31.147Z,99704.81
2022-11-17T18:46:54.262Z,99704.81
2022-11-17T18:52:18.789Z,99704.78
2022-11-17T18:57:44.650Z,99694.56
2022-11-17T19:03:06.934Z,99698.00
2022-11-17T19:08:29.736Z,99698.88
2022-11-17T19:13:51.703Z,99693.81
2022-11-17T19:19:14.312Z,99693.00
2022-11-17T19:24:36.485Z,99679.44
2022-11-17T19:29:58.268Z,99676.91
2022-11-17T19:35:22.855Z,99677.00
2022-11-17T19:40:44.758Z,99669.34
2022-11-17T19:46:11.915Z,99676.13
2022-11-17T19:51:35.227Z,99663.41
2022-11-17T19:56:57.037Z,99676.13
2022-11-17T20:02:18.841Z,99682.91
2022-11-17T20:07:40.741Z,99685.44
2022-11-17T20:13:02.561Z,99673.59
2022-11-17T20:18:24.348Z,99661.72
2022-11-17T20:23:46.731Z,99671.06
2022-11-17T20:29:08.808Z,99672.75
2022-11-17T20:34:30.597Z,99660.91
2022-11-17T20:39:52.460Z,99636.41
2022-11-17T20:45:14.219Z,99654.16
2022-11-17T20:50:35.968Z,99629.59
2022-11-17T20:55:59.364Z,99638.91
2022-11-17T21:01:22.029Z,99630.47
2022-11-17T21:06:44.350Z,99635.56
2022-11-17T21:12:06.399Z,99608.47
2022-11-17T21:17:28.337Z,99616.94
2022-11-17T21:22:50.212Z,99616.94
2022-11-17T21:28:11.986Z,99609.34
2022-11-17T21:33:34.841Z,99616.06
2022-11-17T21:38:57.241Z,99615.22
2022-11-17T21:44:19.088Z,99601.72
2022-11-17T21:49:40.886Z,99601.69
2022-11-17T21:55:02.805Z,99591.56
2022-11-17T22:00:24.633Z,99584.78
2022-11-17T22:05:46.407Z,99595.78
2022-11-17T22:11:14.012Z,99587.31
2022-11-17T22:16:37.721Z,99594.94
2022-11-17T22:21:59.564Z,99594.94
2022-11-17T22:27:21.382Z,99588.16
2022-11-17T22:32:45.412Z,99594.94
2022-11-17T22:38:07.398Z,99573.81
2022-11-17T22:43:29.999Z,99568.72
2022-11-17T22:48:52.407Z,99580.56
2022-11-17T22:54:14.184Z,99583.09
2022-11-17T22:59:36.014Z,99572.09
2022-11-17T23:04:57.766Z,99582.25
2022-11-17T23:10:19.671Z,99568.69
2022-11-17T23:15:41.433Z,99584.72
2022-11-17T23:21:05.589Z,99588.09
2022-11-17T23:26:27.387Z,99590.63
2022-11-17T23:31:49.130Z,99583.88
2022-11-17T23:37:11.093Z,99567.78
2022-11-17T23:42:33.464Z,99579.63
2022-11-17T23:47:57.202Z,99551.75
2022-11-17T23:53:18.971Z,99557.66
2022-11-17T23:58:41.474Z,99558.50
